Time;durP1;ratioP1;P1;durP2;ratioP2;P2;SDS_P1;SDS_P2;PMS_P1;PMS_P2;Temp;Humidity;BMP_temperature;BMP_pressure;BME280_temperature;BME280_humidity;BME280_pressure;Samples;Min_cycle;Max_cycle;Signal;HPM_P1;HPM_P2
2023/09/06 00:02:25;;;;;;;2.33;2.17;;;19.60;66.40;18.80;96894.00;;;;5016611;28;20198;-86
2023/09/06 00:04:54;;;;;;;2.73;2.53;;;19.60;66.40;18.70;96891.00;;;;5014463;28;20587;-87
2023/09/06 00:07:23;;;;;;;3.23;2.77;;;19.60;66.40;18.70;96883.00;;;;5009621;28;20200;-86
2023/09/06 00:09:52;;;;;;;2.33;2.17;;;19.60;66.40;18.70;96885.00;;;;5007955;28;20637;-86
2023/09/06 00:12:20;;;;;;;2.30;2.13;;;19.60;66.40;18.70;96881.00;;;;5014716;28;20277;-86
2023/09/06 00:14:47;;;;;;;2.87;2.23;;;19.50;67.30;18.70;96875.00;;;;5015579;28;20199;-86
2023/09/06 00:17:14;;;;;;;2.50;2.30;;;19.50;67.30;18.70;96877.00;;;;5014459;28;20205;-86
2023/09/06 00:19:44;;;;;;;2.97;2.70;;;19.50;66.50;18.60;96872.00;;;;5015201;28;20228;-86
2023/09/06 00:22:11;;;;;;;2.93;2.70;;;19.50;66.50;18.60;96880.00;;;;5007875;28;20193;-86
2023/09/06 00:24:39;;;;;;;2.50;2.30;;;19.50;66.60;18.60;96873.00;;;;5014026;28;20304;-86
2023/09/06 00:27:07;;;;;;;3.20;2.90;;;19.50;66.80;18.60;96874.00;;;;4988102;28;20217;-86
2023/09/06 00:29:35;;;;;;;2.47;2.27;;;19.40;66.80;18.60;96877.00;;;;4998355;28;20194;-86
2023/09/06 00:32:02;;;;;;;2.60;2.40;;;19.40;66.80;18.60;96871.00;;;;5008067;28;20214;-86
2023/09/06 00:34:31;;;;;;;2.77;2.50;;;19.40;66.80;18.50;96873.00;;;;5014384;28;20222;-86
2023/09/06 00:36:58;;;;;;;2.83;2.57;;;19.40;66.80;18.50;96873.00;;;;5012511;28;20221;-86
2023/09/06 00:39:28;;;;;;;4.27;2.43;;;19.40;66.90;18.50;96871.00;;;;5012921;28;20202;-86
2023/09/06 00:41:56;;;;;;;2.97;2.37;;;19.40;67.00;18.50;96872.00;;;;5004847;28;20290;-86
2023/09/06 00:44:24;;;;;;;3.13;2.90;;;19.40;67.10;18.50;96874.00;;;;5011975;28;20206;-86
2023/09/06 00:46:51;;;;;;;2.57;2.37;;;19.40;67.20;18.50;96872.00;;;;4999110;28;20213;-86
2023/09/06 00:49:19;;;;;;;2.63;2.43;;;19.30;67.20;18.50;96870.00;;;;5002658;28;20684;-86
2023/09/06 00:51:46;;;;;;;2.73;2.53;;;19.30;67.20;18.50;96869.00;;;;5012698;28;20575;-86
2023/09/06 00:54:14;;;;;;;2.60;2.40;;;19.40;67.20;18.50;96862.00;;;;5015032;28;20249;-86
2023/09/06 00:56:41;;;;;;;2.70;2.50;;;19.30;67.10;18.50;96883.00;;;;5013573;28;20218;-86
2023/09/06 00:59:12;;;;;;;3.87;2.50;;;19.30;67.20;18.50;96885.00;;;;5003157;28;20197;-86
2023/09/06 01:01:39;;;;;;;2.87;2.67;;;19.30;67.20;18.40;96877.00;;;;5011987;28;20217;-86
2023/09/06 01:04:07;;;;;;;3.40;2.27;;;19.30;67.20;18.40;96881.00;;;;5014582;28;20204;-86
2023/09/06 01:06:38;;;;;;;2.13;1.93;;;19.30;67.90;18.40;96880.00;;;;5014140;28;20896;-86
2023/09/06 01:09:07;;;;;;;3.00;2.20;;;19.30;67.30;18.40;96876.00;;;;5012515;28;20194;-86
2023/09/06 01:11:37;;;;;;;2.60;2.40;;;19.30;67.40;18.40;96879.00;;;;5014646;28;20719;-86
2023/09/06 01:14:04;;;;;;;3.20;2.87;;;19.30;67.40;18.40;96877.00;;;;5012104;28;20357;-86
2023/09/06 01:16:40;;;;;;;4.83;2.47;;;19.20;67.30;18.40;96872.00;;;;5014242;28;20292;-85
2023/09/06 01:19:12;;;;;;;2.60;2.40;;;19.30;67.40;18.40;96868.00;;;;5011606;28;20269;-86
2023/09/06 01:22:02;;;;;;;2.17;1.97;;;19.20;67.50;18.40;96869.00;;;;5013030;28;20226;-85
2023/09/06 01:24:31;;;;;;;2.33;2.23;;;19.20;67.40;18.30;96872.00;;;;5013513;28;20550;-85
2023/09/06 01:26:58;;;;;;;2.50;2.30;;;19.20;67.50;18.30;96872.00;;;;5010757;28;20214;-86
2023/09/06 01:29:25;;;;;;;2.63;2.43;;;19.20;67.70;18.30;96873.00;;;;5011162;28;20214;-85
2023/09/06 01:31:55;;;;;;;2.53;2.33;;;19.20;67.70;18.30;96871.00;;;;5009274;28;20186;-85
2023/09/06 01:34:22;;;;;;;2.60;2.40;;;19.20;67.80;18.30;96871.00;;;;5011704;28;20251;-86
2023/09/06 01:36:49;;;;;;;2.70;2.27;;;19.20;67.80;18.30;96874.00;;;;4994589;28;20296;-86
2023/09/06 01:39:18;;;;;;;2.47;2.27;;;19.20;67.90;18.30;96870.00;;;;5010712;28;20201;-86
2023/09/06 01:41:47;;;;;;;2.90;2.60;;;19.10;67.90;18.30;96871.00;;;;5008685;28;20209;-86
2023/09/06 01:44:14;;;;;;;2.50;2.30;;;19.20;67.90;18.20;96855.00;;;;5013486;28;20668;-86
2023/09/06 01:46:42;;;;;;;3.17;2.30;;;19.10;67.80;18.20;96863.00;;;;5005325;28;20215;-86
2023/09/06 01:49:09;;;;;;;3.03;2.83;;;19.10;68.00;18.20;96857.00;;;;5008115;28;20194;-86
2023/09/06 01:51:36;;;;;;;3.37;2.20;;;19.10;68.00;18.20;96853.00;;;;5009208;28;20206;-86
2023/09/06 01:54:06;;;;;;;2.60;2.47;;;19.10;67.90;18.10;96852.00;;;;5009450;28;20312;-86
2023/09/06 01:56:33;;;;;;;2.53;2.33;;;19.10;68.10;18.10;96853.00;;;;5006026;28;20273;-86
2023/09/06 01:59:03;;;;;;;2.70;2.50;;;19.00;67.90;18.10;96850.00;;;;5010094;28;20191;-86
2023/09/06 02:01:30;;;;;;;2.70;2.43;;;19.00;67.70;18.10;96853.00;;;;5009017;28;20194;-86
2023/09/06 02:03:59;;;;;;;3.17;2.30;;;19.00;67.80;18.00;96844.00;;;;5012460;28;20237;-86
2023/09/06 02:06:26;;;;;;;2.60;2.40;;;19.00;67.80;18.00;96851.00;;;;5012369;28;20224;-86
2023/09/06 02:08:53;;;;;;;2.47;2.27;;;19.00;67.70;18.00;96855.00;;;;5002971;28;20663;-85
2023/09/06 02:11:21;;;;;;;2.27;2.17;;;18.90;67.70;17.90;96858.00;;;;5006103;28;20578;-86
2023/09/06 02:13:48;;;;;;;2.70;2.50;;;18.90;67.80;17.90;96853.00;;;;5005565;28;20246;-86
2023/09/06 02:16:18;;;;;;;2.73;2.53;;;18.90;67.80;17.80;96848.00;;;;5010020;28;20218;-86
2023/09/06 02:18:47;;;;;;;2.53;2.30;;;18.80;67.90;17.80;96858.00;;;;5013549;28;20205;-86
2023/09/06 02:21:14;;;;;;;2.57;2.37;;;18.80;68.00;17.80;96856.00;;;;5012466;28;20209;-86
2023/09/06 02:23:41;;;;;;;3.00;2.40;;;18.80;68.10;17.80;96853.00;;;;5012450;28;20202;-86
2023/09/06 02:26:08;;;;;;;2.30;2.10;;;18.70;68.10;17.70;96862.00;;;;4987242;28;20695;-86
2023/09/06 02:28:36;;;;;;;2.60;2.40;;;18.70;68.10;17.70;96850.00;;;;5012196;28;20212;-86
2023/09/06 02:31:03;;;;;;;2.90;2.70;;;18.70;68.20;17.70;96856.00;;;;5012804;28;20223;-86
2023/09/06 02:33:32;;;;;;;2.50;2.30;;;18.70;68.30;17.60;96848.00;;;;5012902;28;20229;-86
2023/09/06 02:35:59;;;;;;;2.33;2.13;;;18.60;68.40;17.60;96853.00;;;;5004324;28;20241;-86
2023/09/06 02:38:27;;;;;;;2.77;2.27;;;18.60;68.40;17.60;96855.00;;;;5012194;28;20630;-85
2023/09/06 02:40:54;;;;;;;2.90;2.60;;;18.60;68.50;17.60;96860.00;;;;5012247;28;20209;-86
2023/09/06 02:43:22;;;;;;;2.90;2.30;;;18.60;68.50;17.60;96862.00;;;;5007867;28;20197;-86
2023/09/06 02:45:53;;;;;;;2.37;2.10;;;18.50;68.50;17.50;96864.00;;;;5010342;28;20217;-85
2023/09/06 02:48:21;;;;;;;2.53;2.33;;;18.50;68.60;17.50;96861.00;;;;5006156;28;20285;-86
2023/09/06 02:50:51;;;;;;;2.80;2.40;;;18.50;68.90;17.50;96872.00;;;;5002865;28;20198;-86
2023/09/06 02:53:21;;;;;;;2.20;2.10;;;18.50;69.10;17.50;96876.00;;;;5006592;28;20706;-86
2023/09/06 02:55:51;;;;;;;2.07;1.97;;;18.50;69.30;17.50;96871.00;;;;5016789;28;20259;-86
2023/09/06 02:58:18;;;;;;;2.20;2.00;;;18.40;69.20;17.50;96869.00;;;;5011794;28;20190;-86
2023/09/06 03:00:48;;;;;;;2.33;2.20;;;18.40;69.10;17.50;96873.00;;;;5012469;28;20194;-85
2023/09/06 03:03:17;;;;;;;3.20;2.90;;;18.40;69.20;17.40;96863.00;;;;4976222;28;20572;-86
2023/09/06 03:05:45;;;;;;;3.50;2.67;;;18.40;69.10;17.40;96869.00;;;;5002663;28;20215;-87
2023/09/06 03:08:15;;;;;;;2.50;2.30;;;18.40;69.10;17.40;96865.00;;;;5013393;28;20194;-86
2023/09/06 03:10:44;;;;;;;2.47;2.27;;;18.40;69.00;17.30;96860.00;;;;5012718;28;20635;-87
2023/09/06 03:13:12;;;;;;;2.37;2.20;;;18.40;68.90;17.30;96851.00;;;;5001382;28;20198;-86
2023/09/06 03:15:43;;;;;;;3.03;2.73;;;18.30;68.80;17.30;96863.00;;;;5009584;28;20780;-87
2023/09/06 03:18:10;;;;;;;3.57;2.57;;;18.30;68.80;17.20;96868.00;;;;5003192;28;20249;-86
2023/09/06 03:20:43;;;;;;;3.03;2.80;;;18.30;68.90;17.20;96868.00;;;;5010453;28;20198;-86
2023/09/06 03:23:18;;;;;;;3.10;2.57;;;18.20;68.90;17.20;96864.00;;;;4996098;28;20622;-87
2023/09/06 03:25:47;;;;;;;3.00;2.70;;;18.20;69.00;17.10;96870.00;;;;5011320;28;20593;-86
2023/09/06 03:28:18;;;;;;;3.93;2.80;;;18.20;69.10;17.10;96871.00;;;;5011291;28;20252;-87
2023/09/06 03:30:45;;;;;;;4.50;2.90;;;18.10;69.20;17.10;96860.00;;;;5010820;28;20198;-86
2023/09/06 03:33:12;;;;;;;3.97;2.63;;;18.10;69.40;17.10;96863.00;;;;5006023;28;20205;-87
2023/09/06 03:35:41;;;;;;;2.80;2.40;;;18.10;69.50;17.10;96855.00;;;;5013656;28;20217;-87
2023/09/06 03:38:09;;;;;;;2.50;2.30;;;18.10;69.70;17.00;96864.00;;;;5013482;28;20194;-89
2023/09/06 03:40:38;;;;;;;3.20;2.60;;;18.10;69.70;17.00;96856.00;;;;5013740;28;20194;-88
2023/09/06 03:43:14;;;;;;;2.97;2.67;;;18.10;69.70;17.00;96853.00;;;;5013983;28;20220;-88
2023/09/06 03:45:45;;;;;;;2.50;2.30;;;18.00;69.70;17.00;96856.00;;;;5016170;28;20217;-87
2023/09/06 03:48:12;;;;;;;2.60;2.40;;;18.00;69.70;17.00;96860.00;;;;5005655;28;20190;-86
2023/09/06 03:50:40;;;;;;;2.80;2.60;;;18.00;69.80;17.00;96854.00;;;;5011724;28;20212;-86
2023/09/06 03:53:07;;;;;;;2.80;2.60;;;18.00;69.70;17.00;96855.00;;;;5007043;28;20222;-86
2023/09/06 03:55:34;;;;;;;2.50;2.30;;;17.90;69.70;16.90;96847.00;;;;5008616;28;20309;-87
2023/09/06 03:58:07;;;;;;;3.03;2.37;;;17.90;70.50;16.90;96851.00;;;;5011071;28;20201;-87
2023/09/06 04:00:34;;;;;;;2.70;2.50;;;17.90;69.70;16.90;96853.00;;;;5007293;28;20226;-86
2023/09/06 04:03:03;;;;;;;2.73;2.53;;;17.90;69.70;16.90;96861.00;;;;5015539;28;20200;-86
2023/09/06 04:05:32;;;;;;;3.63;2.60;;;17.90;69.70;16.80;96852.00;;;;5015048;28;20225;-87
2023/09/06 04:08:03;;;;;;;2.50;2.30;;;17.90;69.80;16.80;96852.00;;;;5008004;28;20195;-87
2023/09/06 04:10:36;;;;;;;3.33;2.87;;;17.80;70.20;16.80;96850.00;;;;5016950;28;20195;-87
2023/09/06 04:13:06;;;;;;;3.93;2.50;;;17.80;69.90;16.80;96852.00;;;;5016671;28;20197;-87
2023/09/06 04:15:34;;;;;;;2.90;2.70;;;17.80;69.70;16.80;96855.00;;;;5015195;28;20248;-86
2023/09/06 04:18:03;;;;;;;3.13;2.73;;;17.80;69.80;16.80;96861.00;;;;5007245;28;20222;-86
2023/09/06 04:20:35;;;;;;;3.30;3.00;;;17.80;69.90;16.70;96862.00;;;;5005552;28;20575;-87
2023/09/06 04:23:04;;;;;;;2.87;2.67;;;17.70;69.90;16.70;96861.00;;;;5009093;28;20198;-86
2023/09/06 04:25:33;;;;;;;2.67;2.47;;;17.70;69.90;16.70;96867.00;;;;5010292;28;20218;-87
2023/09/06 04:28:07;;;;;;;3.50;2.80;;;17.70;70.00;16.70;96873.00;;;;5006400;28;20198;-87
2023/09/06 04:30:37;;;;;;;2.77;2.53;;;17.70;70.10;16.70;96873.00;;;;5007590;28;20255;-87
2023/09/06 04:33:07;;;;;;;2.60;2.40;;;17.70;70.20;16.70;96879.00;;;;5008239;28;20190;-87
2023/09/06 04:35:38;;;;;;;3.00;2.80;;;17.70;70.30;16.60;96880.00;;;;5015336;28;20225;-85
2023/09/06 04:38:09;;;;;;;3.10;2.90;;;17.60;70.30;16.70;96877.00;;;;5007150;28;20694;-85
2023/09/06 04:40:37;;;;;;;2.90;2.70;;;17.60;71.10;16.60;96883.00;;;;5014519;28;20286;-85
2023/09/06 04:43:05;;;;;;;3.03;2.77;;;17.60;70.50;16.70;96898.00;;;;5013528;28;20208;-85
2023/09/06 04:45:37;;;;;;;4.67;2.90;;;17.60;70.50;16.60;96896.00;;;;5009097;28;20229;-85
2023/09/06 04:48:05;;;;;;;2.80;2.60;;;17.60;70.60;16.60;96900.00;;;;5014967;28;20202;-86
2023/09/06 04:50:32;;;;;;;3.60;3.23;;;17.60;70.70;16.60;96909.00;;;;5007078;28;20215;-85
2023/09/06 04:53:00;;;;;;;3.57;3.27;;;17.60;70.80;16.60;96906.00;;;;5013117;28;20202;-86
2023/09/06 04:55:27;;;;;;;2.93;2.63;;;17.60;70.80;16.60;96906.00;;;;5014514;28;20225;-85
2023/09/06 04:57:55;;;;;;;4.23;3.10;;;17.60;70.90;16.60;96913.00;;;;5009850;28;20198;-86
2023/09/06 05:00:24;;;;;;;2.93;2.73;;;17.60;71.00;16.70;96905.00;;;;5008239;28;20201;-85
2023/09/06 05:02:53;;;;;;;2.93;2.70;;;17.60;71.00;16.70;96911.00;;;;5011490;28;20206;-85
2023/09/06 05:05:21;;;;;;;3.30;3.00;;;17.60;71.00;16.70;96911.00;;;;5005227;28;20212;-84
2023/09/06 05:07:48;;;;;;;3.17;2.97;;;17.60;71.10;16.70;96910.00;;;;5004915;28;20301;-85
2023/09/06 05:10:15;;;;;;;2.97;2.70;;;17.60;71.20;16.70;96913.00;;;;5012537;28;20195;-86
2023/09/06 05:12:43;;;;;;;3.13;2.93;;;17.60;71.30;16.70;96914.00;;;;5010668;28;20624;-85
2023/09/06 05:15:12;;;;;;;3.20;3.00;;;17.60;71.30;16.70;96916.00;;;;5002976;28;20213;-85
2023/09/06 05:17:40;;;;;;;2.90;2.70;;;17.70;71.40;16.70;96912.00;;;;5011763;28;20309;-86
2023/09/06 05:20:41;;;;;;;2.97;2.73;;;17.70;71.50;16.70;96919.00;;;;5005081;28;20204;-85
2023/09/06 05:23:11;;;;;;;3.20;2.70;;;17.70;71.60;16.70;96917.00;;;;5007340;28;20205;-86
2023/09/06 05:25:38;;;;;;;3.10;2.90;;;17.70;71.50;16.70;96918.00;;;;5006019;28;20711;-85
2023/09/06 05:28:09;;;;;;;3.43;2.80;;;17.70;71.60;16.70;96932.00;;;;5013467;28;20652;-85
2023/09/06 05:30:39;;;;;;;3.00;2.80;;;17.70;71.70;16.70;96935.00;;;;5014233;28;20218;-86
2023/09/06 05:33:07;;;;;;;3.47;2.93;;;17.70;71.80;16.80;96930.00;;;;5005167;28;20245;-85
2023/09/06 05:35:35;;;;;;;3.37;3.07;;;17.70;71.80;16.80;96942.00;;;;5004813;28;20218;-84
2023/09/06 05:38:03;;;;;;;3.30;3.00;;;17.70;71.80;16.80;96939.00;;;;5001895;28;20278;-83
2023/09/06 05:40:32;;;;;;;3.60;3.30;;;17.70;71.90;16.80;96932.00;;;;5008237;28;20190;-85
2023/09/06 05:42:59;;;;;;;3.70;3.00;;;17.70;72.00;16.80;96939.00;;;;5012831;28;20873;-86
2023/09/06 05:45:27;;;;;;;3.23;3.00;;;17.80;72.10;16.80;96940.00;;;;5014073;28;20226;-85
2023/09/06 05:47:55;;;;;;;3.73;3.13;;;17.80;72.30;16.90;96948.00;;;;5003754;28;20204;-85
2023/09/06 05:50:22;;;;;;;3.00;2.80;;;17.80;72.30;16.90;96945.00;;;;5005205;28;20211;-85
2023/09/06 05:52:51;;;;;;;3.47;3.17;;;17.80;72.40;16.90;96949.00;;;;5005653;28;20208;-85
2023/09/06 05:55:18;;;;;;;4.40;3.20;;;17.80;72.40;16.90;96950.00;;;;5007652;28;20226;-85
2023/09/06 05:57:45;;;;;;;3.87;3.30;;;17.80;72.50;17.00;96952.00;;;;5009857;28;20574;-85
2023/09/06 06:00:15;;;;;;;3.50;3.20;;;17.90;72.60;17.00;96946.00;;;;5012986;28;20675;-85
2023/09/06 06:02:43;;;;;;;3.20;2.90;;;17.90;72.60;17.00;96942.00;;;;5003121;28;20217;-84
2023/09/06 06:05:12;;;;;;;2.70;2.50;;;17.90;72.70;17.00;96945.00;;;;4999851;28;20214;-84
2023/09/06 06:07:39;;;;;;;3.17;2.97;;;17.90;72.80;17.10;96943.00;;;;5009272;28;20194;-84
2023/09/06 06:10:10;;;;;;;3.97;2.90;;;17.90;72.80;17.10;96943.00;;;;5011806;28;20201;-85
2023/09/06 06:12:38;;;;;;;2.90;2.60;;;18.00;73.00;17.10;96937.00;;;;5010229;28;20614;-85
2023/09/06 06:15:08;;;;;;;3.13;2.83;;;18.00;73.10;17.10;96944.00;;;;5010029;28;20272;-85
2023/09/06 06:17:35;;;;;;;3.03;2.83;;;18.00;73.00;17.20;96940.00;;;;5004583;28;20193;-85
2023/09/06 06:20:06;;;;;;;4.33;2.80;;;18.00;73.10;17.20;96928.00;;;;5009169;28;20648;-85
2023/09/06 06:22:37;;;;;;;2.83;2.63;;;18.10;73.20;17.20;96941.00;;;;5010750;28;20620;-84
2023/09/06 06:25:08;;;;;;;3.60;3.30;;;18.10;73.30;17.30;96947.00;;;;5003621;28;20540;-84
2023/09/06 06:27:36;;;;;;;2.87;2.67;;;18.10;73.30;17.30;96950.00;;;;5011140;28;20202;-84
2023/09/06 06:30:05;;;;;;;3.60;3.03;;;18.20;73.50;17.30;96948.00;;;;5003291;28;20197;-84
2023/09/06 06:32:33;;;;;;;2.90;2.70;;;18.20;73.50;17.40;96948.00;;;;5012618;28;20190;-84
2023/09/06 06:35:05;;;;;;;3.20;2.97;;;18.20;73.60;17.40;96949.00;;;;5001301;28;20218;-83
2023/09/06 06:37:32;;;;;;;3.27;3.07;;;18.30;74.40;17.50;96961.00;;;;5005208;28;20194;-84
2023/09/06 06:39:59;;;;;;;3.47;3.20;;;18.30;73.60;17.60;96949.00;;;;5004645;28;20562;-84
2023/09/06 06:42:28;;;;;;;2.80;2.60;;;18.40;73.70;17.60;96946.00;;;;5006931;28;20197;-84
2023/09/06 06:44:55;;;;;;;2.87;2.67;;;18.40;73.80;17.70;96936.00;;;;5010658;28;20205;-84
2023/09/06 06:47:22;;;;;;;2.70;2.50;;;18.40;73.80;17.70;96947.00;;;;5009610;28;20205;-84
2023/09/06 06:49:51;;;;;;;3.07;2.87;;;18.50;73.80;17.80;96951.00;;;;5010730;28;20206;-84
2023/09/06 06:52:20;;;;;;;3.30;3.00;;;18.50;73.60;17.90;96958.00;;;;5007514;28;20213;-84
2023/09/06 06:54:47;;;;;;;3.00;2.80;;;18.60;73.50;17.90;96950.00;;;;5006334;28;20220;-84
2023/09/06 06:57:14;;;;;;;3.37;3.07;;;18.60;73.50;18.00;96960.00;;;;5004128;28;20198;-83
2023/09/06 06:59:44;;;;;;;3.10;2.90;;;18.70;73.40;18.10;96955.00;;;;5006408;28;20194;-84
2023/09/06 07:02:14;;;;;;;3.47;3.17;;;18.80;73.50;18.20;96959.00;;;;5006839;28;20735;-83
2023/09/06 07:04:41;;;;;;;3.20;2.97;;;18.80;73.60;18.30;96968.00;;;;5009592;28;20198;-84
2023/09/06 07:07:08;;;;;;;3.20;3.00;;;18.90;73.60;18.30;96969.00;;;;5010704;28;20224;-84
2023/09/06 07:09:36;;;;;;;3.40;3.20;;;19.00;73.60;18.40;96973.00;;;;5009210;28;20232;-84
2023/09/06 07:12:04;;;;;;;3.10;2.90;;;19.10;73.80;18.50;96965.00;;;;5009723;28;20198;-84
2023/09/06 07:14:31;;;;;;;3.67;2.90;;;19.10;73.80;18.50;96968.00;;;;5008818;28;20641;-84
2023/09/06 07:17:01;;;;;;;3.03;2.80;;;19.20;73.70;18.60;96962.00;;;;5007797;28;20308;-83
2023/09/06 07:19:28;;;;;;;3.20;2.90;;;19.30;74.00;18.70;96966.00;;;;4987749;28;20233;-83
2023/09/06 07:21:56;;;;;;;3.20;2.90;;;19.30;74.10;18.80;96974.00;;;;5007987;28;20244;-84
2023/09/06 07:24:23;;;;;;;3.10;2.80;;;19.40;74.20;18.90;96966.00;;;;5006033;28;20279;-84
2023/09/06 07:26:50;;;;;;;3.20;2.87;;;19.50;74.10;19.00;96960.00;;;;5009202;28;20224;-84
2023/09/06 07:29:18;;;;;;;3.43;2.57;;;19.60;74.00;19.10;96971.00;;;;5009916;28;20200;-84
2023/09/06 07:31:45;;;;;;;3.03;2.83;;;19.70;73.90;19.20;96971.00;;;;5009195;28;20257;-84
2023/09/06 07:34:15;;;;;;;2.80;2.60;;;19.80;73.70;19.40;96970.00;;;;5008185;28;20206;-84
2023/09/06 07:36:43;;;;;;;3.40;3.10;;;19.90;73.80;19.50;96974.00;;;;5012197;28;20225;-84
2023/09/06 07:39:17;;;;;;;2.97;2.77;;;20.00;73.70;19.60;96965.00;;;;5009006;28;20224;-84
2023/09/06 07:44:38;;;;;;;2.87;2.67;;;20.30;73.50;19.80;96964.00;;;;5003467;28;20197;-85
2023/09/06 07:47:05;;;;;;;3.23;2.90;;;20.40;73.30;19.90;96970.00;;;;5013040;28;20218;-85
2023/09/06 07:49:40;;;;;;;3.23;2.93;;;20.50;73.20;20.00;96971.00;;;;5013470;28;20195;-84
2023/09/06 07:52:08;;;;;;;3.90;2.90;;;20.30;72.60;20.20;96967.00;;;;5013409;28;20625;-84
2023/09/06 07:54:35;;;;;;;2.70;2.50;;;20.70;72.60;20.30;96971.00;;;;5010984;28;20194;-83
2023/09/06 07:57:03;;;;;;;3.77;2.87;;;20.80;72.30;20.40;96968.00;;;;4995398;28;20214;-83
2023/09/06 07:59:30;;;;;;;3.10;2.90;;;20.90;72.30;20.50;96973.00;;;;5011796;28;20202;-84
2023/09/06 08:01:57;;;;;;;2.87;2.67;;;21.10;72.30;20.60;96975.00;;;;5013512;28;20214;-83
2023/09/06 08:04:25;;;;;;;3.63;2.60;;;21.20;71.90;20.70;96979.00;;;;5012890;28;20288;-83
2023/09/06 08:06:55;;;;;;;2.93;2.73;;;21.30;71.70;20.80;96971.00;;;;5011126;28;20272;-83
2023/09/06 08:09:22;;;;;;;2.87;2.67;;;21.40;71.70;21.00;96977.00;;;;5010088;28;20198;-84
2023/09/06 08:11:50;;;;;;;3.00;2.80;;;21.50;71.50;21.10;96977.00;;;;5013696;28;20209;-84
2023/09/06 08:14:17;;;;;;;2.70;2.50;;;21.60;71.30;21.20;96969.00;;;;5012781;28;20198;-84
2023/09/06 08:16:45;;;;;;;2.70;2.40;;;21.70;71.30;21.30;96975.00;;;;5011876;28;20222;-84
2023/09/06 08:19:12;;;;;;;2.53;2.37;;;21.80;71.20;21.40;96977.00;;;;5013470;28;20720;-84
2023/09/06 08:21:42;;;;;;;4.43;3.10;;;21.90;70.90;21.50;96974.00;;;;4994438;28;20206;-84
2023/09/06 08:24:10;;;;;;;2.67;2.47;;;22.10;70.80;21.70;96985.00;;;;5014140;28;20692;-84
2023/09/06 08:26:37;;;;;;;4.43;2.57;;;22.20;70.40;21.80;96977.00;;;;5012927;28;20218;-84
2023/09/06 08:29:05;;;;;;;3.80;2.70;;;22.30;70.30;21.90;96988.00;;;;5011293;28;20212;-84
2023/09/06 08:31:34;;;;;;;2.27;2.17;;;22.40;70.00;22.00;96983.00;;;;5010448;28;20602;-84
2023/09/06 08:34:02;;;;;;;4.63;2.90;;;22.50;70.10;22.10;96989.00;;;;5011802;28;20195;-83
2023/09/06 08:36:29;;;;;;;2.70;2.50;;;22.60;70.20;22.20;96988.00;;;;5013428;28;20284;-84
2023/09/06 08:38:57;;;;;;;3.30;2.50;;;22.70;70.00;22.40;96990.00;;;;5011399;28;20206;-84
2023/09/06 08:41:27;;;;;;;2.83;2.63;;;22.80;69.90;22.50;96999.00;;;;5011927;28;20287;-84
2023/09/06 08:43:55;;;;;;;2.90;2.70;;;22.90;69.20;22.60;96993.00;;;;5008924;28;20645;-84
2023/09/06 08:46:30;;;;;;;2.20;2.10;;;23.10;69.20;22.80;96999.00;;;;5014544;28;20306;-84
2023/09/06 08:49:00;;;;;;;2.53;2.40;;;23.20;68.90;22.90;96993.00;;;;5011492;28;20316;-84
2023/09/06 08:51:35;;;;;;;2.60;2.40;;;23.30;69.10;23.10;96998.00;;;;5007769;28;20213;-84
2023/09/06 08:54:04;;;;;;;2.57;2.37;;;23.50;69.10;23.20;96999.00;;;;5006683;28;20220;-84
2023/09/06 08:56:36;;;;;;;2.53;2.33;;;23.60;69.80;23.40;97000.00;;;;5009448;28;20222;-84
2023/09/06 08:59:03;;;;;;;3.00;2.70;;;23.70;68.40;23.50;97001.00;;;;5008109;28;20202;-84
2023/09/06 09:01:31;;;;;;;3.13;2.60;;;23.90;68.40;23.70;97002.00;;;;5012291;28;20197;-84
2023/09/06 09:03:58;;;;;;;2.93;2.73;;;24.00;67.50;23.80;97006.00;;;;5011884;28;20636;-84
2023/09/06 09:06:25;;;;;;;2.47;2.27;;;24.20;67.30;24.00;97003.00;;;;5012581;28;20226;-84
2023/09/06 09:08:53;;;;;;;2.60;2.40;;;24.30;67.40;24.10;97006.00;;;;5012367;28;20575;-84
2023/09/06 09:11:21;;;;;;;3.13;2.30;;;24.40;67.20;24.20;97004.00;;;;5010832;28;20658;-84
2023/09/06 09:13:50;;;;;;;2.97;2.77;;;24.60;67.30;24.40;97009.00;;;;5011586;28;20201;-83
2023/09/06 09:16:18;;;;;;;2.70;2.50;;;24.70;66.30;24.50;97020.00;;;;5013406;28;20236;-84
2023/09/06 09:18:47;;;;;;;2.47;2.27;;;24.80;66.30;24.60;97023.00;;;;5013555;28;20194;-84
2023/09/06 09:21:15;;;;;;;2.57;2.37;;;24.90;66.20;24.70;97021.00;;;;5012216;28;20198;-84
2023/09/06 09:23:47;;;;;;;5.47;2.60;;;25.50;65.80;24.90;97017.00;;;;5010144;28;20202;-84
2023/09/06 09:26:19;;;;;;;2.93;2.40;;;25.20;65.10;25.00;97008.00;;;;5009363;28;20227;-84
2023/09/06 09:28:46;;;;;;;2.60;2.40;;;25.30;65.50;25.10;97013.00;;;;5021925;28;20221;-83
2023/09/06 09:31:17;;;;;;;2.53;2.33;;;25.40;65.20;25.20;97009.00;;;;5026270;28;20232;-84
2023/09/06 09:33:45;;;;;;;2.80;2.40;;;25.60;64.70;25.30;97014.00;;;;4996030;28;20202;-83
2023/09/06 09:36:15;;;;;;;2.57;2.37;;;25.70;63.80;25.50;97011.00;;;;5012850;28;20226;-83
2023/09/06 09:38:43;;;;;;;2.33;2.13;;;25.80;63.00;25.60;97011.00;;;;5013082;28;20285;-84
2023/09/06 09:41:10;;;;;;;2.60;2.13;;;25.90;63.20;25.70;97016.00;;;;5012678;28;20194;-84
2023/09/06 09:43:38;;;;;;;2.13;1.93;;;26.00;63.40;25.80;97013.00;;;;5011508;28;20560;-84
2023/09/06 09:46:06;;;;;;;2.33;2.13;;;26.10;63.20;25.90;97008.00;;;;5012459;28;20218;-85
2023/09/06 09:48:36;;;;;;;2.80;2.60;;;26.30;62.90;26.00;97011.00;;;;5012860;28;20230;-84
2023/09/06 09:51:10;;;;;;;2.87;2.10;;;26.30;61.70;26.10;97011.00;;;;5011382;28;20206;-84
2023/09/06 09:53:41;;;;;;;1.90;1.80;;;26.50;61.70;26.20;97013.00;;;;5009345;28;20201;-84
2023/09/06 09:56:09;;;;;;;2.37;1.93;;;26.60;62.00;26.30;97011.00;;;;5008313;28;20225;-85
2023/09/06 09:58:40;;;;;;;2.10;2.00;;;26.60;62.10;26.40;97006.00;;;;5009739;28;20206;-84
2023/09/06 10:01:10;;;;;;;3.63;2.10;;;26.70;62.20;26.50;97005.00;;;;5009840;28;20218;-85
2023/09/06 10:03:42;;;;;;;1.93;1.83;;;26.80;61.30;26.60;97006.00;;;;5010787;28;20611;-84
2023/09/06 10:06:12;;;;;;;2.23;2.00;;;26.90;60.10;26.70;97013.00;;;;5007376;28;20226;-84
2023/09/06 10:08:44;;;;;;;2.10;2.00;;;27.00;59.40;26.70;97012.00;;;;5010179;28;20198;-84
2023/09/06 10:11:16;;;;;;;2.55;2.35;;;27.10;60.10;26.90;97008.00;;;;5006306;28;20198;-84
2023/09/06 10:13:45;;;;;;;2.00;1.80;;;27.20;60.50;27.00;97004.00;;;;5009189;28;20203;-84
2023/09/06 10:16:13;;;;;;;2.78;1.83;;;27.30;60.40;27.10;97010.00;;;;5006417;28;20264;-84
2023/09/06 10:18:42;;;;;;;2.10;1.90;;;27.40;60.30;27.10;97008.00;;;;4994882;28;20554;-84
2023/09/06 10:21:10;;;;;;;2.08;1.95;;;27.50;60.20;27.30;97015.00;;;;5011602;28;20202;-84
2023/09/06 10:23:42;;;;;;;2.08;1.98;;;27.60;59.90;27.40;97012.00;;;;5012048;28;20229;-85
2023/09/06 10:26:09;;;;;;;2.20;2.00;;;27.60;59.60;27.50;97008.00;;;;5007152;28;20255;-85
2023/09/06 10:28:36;;;;;;;2.15;1.95;;;27.70;59.80;27.60;97006.00;;;;5009472;28;20265;-84
2023/09/06 10:31:08;;;;;;;1.75;1.65;;;27.80;59.60;27.70;97009.00;;;;5001745;28;20202;-85
2023/09/06 10:33:57;;;;;;;2.03;1.83;;;27.90;58.90;27.70;97008.00;;;;5008146;28;20292;-85
2023/09/06 10:36:29;;;;;;;3.95;2.25;;;28.00;57.90;27.80;97004.00;;;;4997452;28;20226;-85
2023/09/06 10:39:25;;;;;;;2.10;2.00;;;28.10;58.70;27.90;97003.00;;;;5006575;28;20209;-85
2023/09/06 10:42:19;;;;;;;2.58;2.13;;;28.20;57.10;28.00;97003.00;;;;5008687;28;20679;-85
2023/09/06 10:45:12;;;;;;;2.30;1.98;;;28.30;56.60;28.00;97005.00;;;;5004038;28;20201;-85
2023/09/06 10:47:40;;;;;;;2.00;1.90;;;28.40;56.30;28.10;97004.00;;;;4992229;28;20203;-85
2023/09/06 10:50:17;;;;;;;2.03;1.92;;;28.40;57.50;28.10;96990.00;;;;4999144;28;20289;-85
2023/09/06 10:52:49;;;;;;;2.00;1.90;;;28.40;56.80;28.20;97001.00;;;;5000961;28;20206;-85
2023/09/06 10:55:23;;;;;;;1.75;1.65;;;28.50;57.40;28.20;96996.00;;;;5007598;28;20221;-85
2023/09/06 10:57:54;;;;;;;1.80;1.70;;;28.50;56.80;28.20;96999.00;;;;5002383;28;20240;-84
2023/09/06 11:00:25;;;;;;;1.90;1.80;;;28.50;57.00;28.20;96993.00;;;;5003624;28;20190;-85
2023/09/06 11:03:18;;;;;;;2.10;1.85;;;28.50;57.00;28.20;96993.00;;;;5007486;28;20190;-85
2023/09/06 11:05:54;;;;;;;5.07;1.92;;;28.50;56.20;28.20;96991.00;;;;5002342;28;20217;-85
2023/09/06 11:08:33;;;;;;;1.90;1.80;;;28.50;56.00;28.20;96992.00;;;;4993588;28;20678;-85